Outage due to equipment failure. Site will not be transmitting information for the foreseeable future.

Latest Weather Observations for Rundle Island

IDQ60801

Issued at 4:02 pm EST Friday 6 March 2015 (issued every 30 minutes, with the page automatically refreshed every 10 minutes)

About weather observations | Map of weather stations | Latest weather observations for QLD | Other Formats
Station Details ID: 039322 Name: RUNDLE ISLAND Lat: -23.53 Lon: 151.28 Height: 19.8 m
Data from the previous 72 hours. | See also: Recent months at Rundle Island
Date/Time
EST
Temp
°C
App
Temp
°C
Dew
Point
Rel
Hum
%
Delta-T
°C
Wind Press
QNH
hPa
Press
MSL
hPa
Rain
since 9 am
mm
Dir
 
Spd
km/h
Gust
km/h
Spd
kts
Gust
kts
06/04:00pm 28.2 - - - - E 22 24 12 13 1004.6 1004.5 -
06/03:30pm 28.2 - - - - ESE 22 24 12 13 1004.4 1004.3 -
06/03:00pm 28.3 - - - - ESE 24 26 13 14 1004.8 1004.7 -
06/02:30pm 28.1 - - - - ESE 22 26 12 14 1005.2 1005.1 -
06/02:00pm 28.0 - - - - SE 26 28 14 15 1005.5 1005.4 -
06/01:30pm 27.6 - - - - SE 28 33 15 18 1005.9 1005.8 -
06/01:00pm 27.6 - - - - SE 30 35 16 19 1006.3 1006.2 -
06/12:30pm 27.6 - - - - SE 33 41 18 22 1006.5 1006.4 -
06/12:00pm 27.6 - - - - SE 33 37 18 20 1006.8 1006.7 -
06/11:30am 27.5 - - - - SE 33 39 18 21 1007.1 1007.0 -
06/11:00am 27.2 - - - - SE 32 37 17 20 1007.4 1007.3 -
06/10:30am 27.1 - - - - SE 30 33 16 18 1007.6 1007.5 -
06/10:00am 26.8 - - - - SE 26 30 14 16 1007.7 1007.6 -
06/09:30am 26.9 - - - - SSE 32 35 17 19 1007.7 1007.6 -
06/09:00am 26.6 - - - - SSE 28 33 15 18 1007.9 1007.8 -
06/08:30am 26.8 - - - - SE 37 43 20 23 1007.5 1007.4 -
06/08:00am 26.9 - - - - SSE 43 46 23 25 1007.2 1007.1 -
06/07:30am 27.1 - - - - S 28 39 15 21 1006.8 1006.7 -
06/07:27am 26.9 - - - - S 24 39 13 21 1006.9 1006.8 -
06/07:00am 26.3 - - - - SW 17 19 9 10 1006.4 1006.3 -
06/06:30am 26.4 - - - - WSW 13 15 7 8 1006.1 1006.0 -
06/06:00am 26.0 - - - - W 15 19 8 10 1005.8 1005.7 -
06/05:30am 25.9 - - - - WSW 9 13 5 7 1005.5 1005.4 -
06/05:00am 26.0 - - - - WNW 13 15 7 8 1005.2 1005.1 -
06/04:30am 26.3 - - - - W 11 15 6 8 1005.1 1005.0 -
06/04:00am 26.5 - - - - W 11 13 6 7 1005.0 1004.9 -
06/03:30am 26.9 - - - - NW 15 17 8 9 1004.9 1004.8 -
06/03:00am 27.1 - - - - NW 17 19 9 10 1005.1 1005.0 -
06/02:30am 27.2 - - - - NW 17 20 9 11 1005.1 1005.0 -
06/02:00am 27.2 - - - - NW 20 22 11 12 1005.2 1005.1 -
06/01:30am 27.4 - - - - NNW 20 24 11 13 1005.4 1005.3 -
06/01:00am 27.4 - - - - NNW 20 22 11 12 1005.7 1005.6 -
06/12:30am 27.4 - - - - NNW 26 28 14 15 1005.5 1005.4 -
06/12:00am 27.5 - - - - NNW 26 30 14 16 1005.7 1005.6 -
 
Date/Time
EST
Temp
°C
App
Temp
°C
Dew
Point
Rel
Hum
%
Delta-T
°C
Wind Press
QNH
hPa
Press
MSL
hPa
Rain
since 9 am
mm
Dir
 
Spd
km/h
Gust
km/h
Spd
kts
Gust
kts
05/11:30pm 27.5 - - - - NNW 28 32 15 17 1005.8 1005.7 -
05/11:00pm 27.5 - - - - NNW 26 28 14 15 1005.9 1005.8 -
05/10:30pm 27.6 - - - - NNW 26 30 14 16 1005.7 1005.6 -
05/10:00pm 27.4 - - - - N 24 28 13 15 1005.7 1005.6 -
05/09:30pm 27.5 - - - - N 24 28 13 15 1005.8 1005.7 -
05/09:00pm 27.6 - - - - NNW 24 26 13 14 1005.8 1005.7 -
05/08:30pm 27.6 - - - - N 24 26 13 14 1005.7 1005.6 -
05/08:00pm 27.7 - - - - N 22 26 12 14 1005.7 1005.6 -
05/07:30pm 27.6 - - - - N 22 24 12 13 1005.6 1005.5 -
05/07:00pm 27.7 - - - - N 22 24 12 13 1005.5 1005.4 -
05/06:30pm 27.7 - - - - NNW 19 20 10 11 1005.6 1005.5 -
05/06:00pm 27.8 - - - - NNW 24 26 13 14 1005.6 1005.5 -
05/05:30pm 28.1 - - - - NNW 24 26 13 14 1005.7 1005.6 -
05/05:00pm 27.9 - - - - N 26 28 14 15 1005.5 1005.4 -
05/04:30pm 27.8 - - - - N 24 28 13 15 1005.4 1005.3 -
05/04:00pm 28.0 - - - - N 26 28 14 15 1005.6 1005.5 -
05/03:30pm 28.0 - - - - N 26 28 14 15 1005.9 1005.8 -
05/03:00pm 27.7 - - - - N 24 28 13 15 1006.1 1006.0 -
05/02:30pm 27.7 - - - - N 24 28 13 15 1006.4 1006.3 -
05/02:00pm 27.6 - - - - N 20 24 11 13 1006.9 1006.8 -
05/01:30pm 27.4 - - - - NNW 19 22 10 12 1007.4 1007.3 -
05/01:00pm 27.1 - - - - NNW 20 24 11 13 1008.1 1008.0 -
05/12:30pm 27.1 - - - - NNW 19 20 10 11 1008.6 1008.5 -
05/12:00pm 27.1 - - - - NNW 17 19 9 10 1009.2 1009.1 -
05/11:30am 27.2 - - - - NNW 15 19 8 10 1009.6 1009.5 -
05/11:00am 27.3 - - - - NNW 9 13 5 7 1010.0 1009.9 -
05/10:30am 27.2 - - - - NNW 9 13 5 7 1010.4 1010.3 -
05/10:00am 26.8 - - - - NNW 9 11 5 6 1010.8 1010.7 -
05/09:30am 26.6 - - - - NNW 11 13 6 7 1010.6 1010.5 -
05/09:00am 26.6 - - - - NNW 9 11 5 6 1010.7 1010.6 -
05/08:30am 26.2 - - - - CALM 0 4 0 2 1010.7 1010.6 -
05/08:00am 25.7 - - - - W 4 6 2 3 1010.6 1010.5 -
05/07:30am 25.8 - - - - WSW 7 9 4 5 1010.5 1010.4 -
05/07:00am 25.6 - - - - SW 7 9 4 5 1010.2 1010.1 -
05/06:30am 25.7 - - - - SW 4 6 2 3 1009.9 1009.8 -
05/06:00am 25.8 - - - - SW 2 9 1 5 1009.7 1009.6 -
05/05:30am 25.9 - - - - CALM 0 4 0 2 1009.5 1009.4 -
05/05:00am 26.0 - - - - NNE 4 6 2 3 1009.3 1009.2 -
05/04:30am 26.1 - - - - N 4 6 2 3 1009.4 1009.3 -
05/04:00am 26.1 - - - - NNE 6 7 3 4 1009.4 1009.3 -
05/03:30am 26.1 - - - - NNE 6 7 3 4 1009.4 1009.3 -
05/03:00am 26.1 - - - - NE 7 9 4 5 1009.6 1009.5 -
05/02:30am 26.1 - - - - ENE 7 9 4 5 1009.9 1009.8 -
05/02:00am 26.1 - - - - ENE 9 11 5 6 1010.2 1010.1 -
05/01:30am 26.1 - - - - E 7 11 4 6 1010.6 1010.5 -
05/01:00am 26.2 - - - - E 9 11 5 6 1010.8 1010.7 -
05/12:30am 26.2 - - - - ENE 11 15 6 8 1011.2 1011.1 -
05/12:00am 26.3 - - - - E 9 13 5 7 1011.5 1011.4 -
 
Date/Time
EST
Temp
°C
App
Temp
°C
Dew
Point
Rel
Hum
%
Delta-T
°C
Wind Press
QNH
hPa
Press
MSL
hPa
Rain
since 9 am
mm
Dir
 
Spd
km/h
Gust
km/h
Spd
kts
Gust
kts
04/11:30pm 26.2 - - - - ENE 11 13 6 7 1012.0 1011.8 -
04/11:00pm 26.4 - - - - ENE 11 13 6 7 1012.2 1012.0 -
04/10:30pm 26.4 - - - - E 15 19 8 10 1012.2 1012.0 -
04/10:00pm 26.4 - - - - E 17 20 9 11 1012.1 1011.9 -
04/09:30pm 26.5 - - - - E 17 19 9 10 1012.1 1011.9 -
04/09:00pm 26.4 - - - - E 15 17 8 9 1012.1 1011.9 -
04/08:30pm 26.5 - - - - E 15 19 8 10 1012.1 1011.9 -
04/08:00pm 26.5 - - - - E 17 19 9 10 1011.8 1011.6 -
04/07:30pm 26.6 - - - - E 17 19 9 10 1011.7 1011.5 -
04/07:00pm 26.6 - - - - E 15 17 8 9 1011.3 1011.2 -
04/06:30pm 26.6 - - - - E 15 19 8 10 1011.0 1010.9 -
04/06:00pm 26.9 - - - - E 17 19 9 10 1010.9 1010.8 -
04/05:30pm 26.9 - - - - E 17 19 9 10 1010.8 1010.7 -
04/05:00pm 27.1 - - - - E 17 20 9 11 1010.7 1010.6 -
04/04:30pm 27.4 - - - - E 17 19 9 10 1010.7 1010.6 -
04/04:00pm 27.3 - - - - E 19 22 10 12 1010.7 1010.6 -
04/03:30pm 27.2 - - - - E 19 22 10 12 1010.7 1010.6 -
04/03:00pm 27.2 - - - - ESE 19 20 10 11 1010.9 1010.8 -
04/02:30pm 27.2 - - - - ESE 20 24 11 13 1011.2 1011.1 -
04/02:00pm 27.2 - - - - SE 20 24 11 13 1011.5 1011.4 -
04/01:30pm 26.8 - - - - SE 20 24 11 13 1011.9 1011.7 -
04/01:00pm 27.0 - - - - SE 20 24 11 13 1012.3 1012.1 -
04/12:30pm 26.6 - - - - SE 22 24 12 13 1012.7 1012.5 -
04/12:00pm 26.7 - - - - SE 22 26 12 14 1012.8 1012.6 -
04/11:30am 26.6 - - - - SE 22 26 12 14 1013.0 1012.8 -
04/11:00am 26.4 - - - - SE 22 28 12 15 1013.1 1012.9 -
04/10:30am 26.2 - - - - SE 22 28 12 15 1013.4 1013.2 -
04/10:00am 25.7 - - - - SSE 22 26 12 14 1013.5 1013.3 -
04/09:30am 25.8 - - - - SSE 24 30 13 16 1013.6 1013.4 -
04/09:00am 25.6 - - - - SSE 26 32 14 17 1013.4 1013.2 -
04/08:30am 25.1 - - - - SE 26 30 14 16 1013.2 1013.0 -
04/08:00am 25.0 - - - - SSE 28 32 15 17 1012.9 1012.7 -
04/07:30am 25.2 - - - - SSE 26 33 14 18 1012.8 1012.6 -
04/07:00am 25.0 - - - - SSE 28 33 15 18 1012.6 1012.4 -
04/06:30am 24.9 - - - - SSE 28 32 15 17 1012.4 1012.2 -
04/06:00am 25.0 - - - - SSE 30 35 16 19 1012.2 1012.0 -
04/05:30am 25.0 - - - - SSE 30 33 16 18 1011.9 1011.7 -
04/05:00am 25.1 - - - - SSE 32 37 17 20 1011.5 1011.4 -
04/04:30am 25.4 - - - - SSE 28 33 15 18 1011.5 1011.4 -
04/04:00am 25.3 - - - - SSE 30 35 16 19 1011.3 1011.2 -
04/03:30am 25.1 - - - - SSE 30 33 16 18 1011.3 1011.2 -
04/03:00am 24.6 - - - - SSE 24 32 13 17 1011.7 1011.5 -
04/02:30am 25.5 - - - - SSE 32 35 17 19 1011.7 1011.5 -
04/02:00am 26.3 - - - - SE 35 37 19 20 1012.1 1011.9 -
04/01:30am 26.4 - - - - SE 33 39 18 21 1012.5 1012.3 -
04/01:00am 26.4 - - - - SE 32 35 17 19 1012.8 1012.6 -
04/12:30am 26.4 - - - - SE 32 35 17 19 1013.0 1012.8 -
04/12:00am 26.5 - - - - SE 30 33 16 18 1013.3 1013.1 -
 
Date/Time
EST
Temp
°C
App
Temp
°C
Dew
Point
Rel
Hum
%
Delta-T
°C
Wind Press
QNH
hPa
Press
MSL
hPa
Rain
since 9 am
mm
Dir
 
Spd
km/h
Gust
km/h
Spd
kts
Gust
kts
03/11:30pm 26.7 - - - - SE 30 35 16 19 1013.4 1013.2 -
03/11:00pm 26.7 - - - - SE 28 32 15 17 1013.6 1013.4 -
03/10:30pm 26.8 - - - - ESE 30 35 16 19 1013.6 1013.4 -
03/10:00pm 26.6 - - - - ESE 30 35 16 19 1013.5 1013.3 -
03/09:30pm 26.7 - - - - ESE 35 43 19 23 1013.7 1013.5 -
03/09:00pm 26.7 - - - - ESE 35 43 19 23 1013.2 1013.0 -
03/08:30pm 26.8 - - - - ESE 32 37 17 20 1013.2 1013.0 -
03/08:00pm 26.8 - - - - ESE 32 39 17 21 1012.8 1012.6 -
03/07:30pm 26.9 - - - - ESE 33 39 18 21 1012.4 1012.2 -
03/07:00pm 26.9 - - - - ESE 33 37 18 20 1012.1 1011.9 -
03/06:30pm 27.0 - - - - ESE 32 37 17 20 1011.8 1011.6 -
03/06:00pm 26.9 - - - - ESE 33 37 18 20 1011.4 1011.3 -
03/05:30pm 27.3 - - - - ESE 32 35 17 19 1011.2 1011.1 -
03/05:00pm 27.2 - - - - ESE 32 37 17 20 1010.9 1010.8 -
03/04:30pm 27.2 - - - - ESE 32 37 17 20 1010.8 1010.7 -

Other Formats:

Comma delimited format used in spreadsheet applications
http://www.bom.gov.au/fwo/IDQ60801/IDQ60801.94378.axf

JavaScript Object Notation format (JSON) in row-major order
http://www.bom.gov.au/fwo/IDQ60801/IDQ60801.94378.json